createdAt,value
2019-05-21T00:00:01.324Z,14.36
2019-05-21T00:01:01.061Z,14.23
2019-05-21T00:02:01.309Z,14.36
2019-05-21T00:03:01.312Z,14.33
2019-05-21T00:04:01.315Z,14.35
2019-05-21T00:05:01.295Z,14.36
2019-05-21T00:06:04.335Z,14.33
2019-05-21T00:07:01.052Z,14.32
2019-05-21T00:08:01.287Z,14.18
2019-05-21T00:09:01.104Z,14.32
2019-05-21T00:10:01.285Z,14.33
2019-05-21T00:11:01.286Z,14.2
2019-05-21T00:12:01.342Z,14.26
2019-05-21T00:13:01.267Z,14.25
2019-05-21T00:14:01.257Z,14.29
2019-05-21T00:15:01.275Z,14.25
2019-05-21T00:16:01.271Z,14.29
2019-05-21T00:17:02.912Z,14.25
2019-05-21T00:18:01.263Z,14.2
2019-05-21T00:19:01.019Z,14.25
2019-05-21T00:20:01.265Z,14.2
2019-05-21T00:21:00.762Z,14.18
2019-05-21T00:22:01.253Z,14.18
2019-05-21T00:23:01.292Z,14.2
2019-05-21T00:24:01.263Z,14.18
2019-05-21T00:25:01.252Z,14.12
2019-05-21T00:26:01.238Z,14.2
2019-05-21T00:27:01.239Z,14.22
2019-05-21T00:28:07.253Z,14.17
2019-05-21T00:29:01.236Z,14.17
2019-05-21T00:30:01.283Z,14.2
2019-05-21T00:31:00.974Z,14.22
2019-05-21T00:32:01.228Z,14.22
2019-05-21T00:33:01.231Z,14.2
2019-05-21T00:34:00.971Z,14.2
2019-05-21T00:35:00.710Z,14.17
2019-05-21T00:36:00.952Z,14.25
2019-05-21T00:37:01.457Z,14.07
2019-05-21T00:38:02.379Z,14.15
2019-05-21T00:39:03.984Z,14.2
2019-05-21T00:40:01.189Z,14.17
2019-05-21T00:41:01.291Z,14.12
2019-05-21T00:42:01.185Z,14.1
2019-05-21T00:43:00.936Z,14.14
2019-05-21T00:44:00.931Z,14.1
2019-05-21T00:45:01.182Z,14.08
2019-05-21T00:46:01.181Z,14.14
2019-05-21T00:47:01.002Z,14.12
2019-05-21T00:48:00.920Z,14.17
2019-05-21T00:49:04.195Z,14.07
2019-05-21T00:50:01.185Z,14.14
2019-05-21T00:51:00.911Z,14.11
2019-05-21T00:52:12.726Z,14.04
2019-05-21T00:53:00.906Z,14.07
2019-05-21T00:54:01.070Z,14.08
2019-05-21T00:55:00.904Z,14.08
2019-05-21T00:56:00.942Z,14.05
2019-05-21T00:57:00.931Z,13.96
2019-05-21T00:58:00.895Z,13.92
2019-05-21T00:59:00.889Z,13.96
2019-05-21T01:00:04.359Z,14.03
2019-05-21T01:01:01.134Z,14
2019-05-21T01:02:01.140Z,13.99
2019-05-21T01:03:00.882Z,13.99
2019-05-21T01:04:01.150Z,13.93
2019-05-21T01:05:05.760Z,13.93
2019-05-21T01:06:01.113Z,14
2019-05-21T01:07:00.873Z,13.96
2019-05-21T01:08:01.116Z,13.97
2019-05-21T01:09:01.166Z,13.93
2019-05-21T01:10:01.529Z,13.92
2019-05-21T01:11:04.268Z,13.93
2019-05-21T01:12:01.115Z,13.9
2019-05-21T01:13:00.860Z,13.89
2019-05-21T01:14:00.855Z,13.9
2019-05-21T01:15:01.157Z,13.93
2019-05-21T01:16:00.833Z,13.9
2019-05-21T01:17:00.832Z,13.92
2019-05-21T01:18:00.581Z,13.93
2019-05-21T01:19:01.087Z,13.77
2019-05-21T01:20:00.828Z,13.81
2019-05-21T01:21:03.862Z,13.83
2019-05-21T01:22:01.073Z,13.79
2019-05-21T01:23:01.118Z,13.81
2019-05-21T01:24:01.055Z,13.89
2019-05-21T01:25:01.061Z,13.86
2019-05-21T01:26:00.815Z,13.86
2019-05-21T01:27:01.060Z,13.89
2019-05-21T01:28:01.056Z,13.87
2019-05-21T01:29:01.078Z,13.86
2019-05-21T01:30:00.809Z,13.85
2019-05-21T01:31:01.047Z,13.83
2019-05-21T01:32:02.647Z,13.86
2019-05-21T01:33:01.027Z,13.83
2019-05-21T01:34:01.015Z,13.83
2019-05-21T01:35:15.941Z,13.92
2019-05-21T01:36:00.768Z,13.9
2019-05-21T01:37:00.809Z,13.85
2019-05-21T01:38:01.060Z,13.87
2019-05-21T01:39:01.049Z,13.79
2019-05-21T01:40:01.009Z,13.86
2019-05-21T01:41:00.998Z,13.86
2019-05-21T01:42:01.067Z,13.89
2019-05-21T01:43:03.403Z,13.86
2019-05-21T01:44:00.993Z,13.83
2019-05-21T01:45:01.021Z,13.83
2019-05-21T01:46:00.745Z,13.81
2019-05-21T01:47:01.017Z,13.81
2019-05-21T01:48:00.490Z,13.89
2019-05-21T01:49:00.725Z,13.83
2019-05-21T01:50:00.983Z,13.89
2019-05-21T01:51:00.719Z,13.85
2019-05-21T01:52:01.027Z,13.86
2019-05-21T01:53:02.502Z,13.87
2019-05-21T01:54:03.988Z,13.89
2019-05-21T01:55:00.457Z,13.83
2019-05-21T01:56:00.961Z,13.86
2019-05-21T01:57:00.761Z,13.87
2019-05-21T01:58:00.939Z,13.86
2019-05-21T01:59:00.780Z,13.86
2019-05-21T02:00:00.691Z,13.86
2019-05-21T02:01:00.696Z,13.86
2019-05-21T02:02:00.989Z,13.81
2019-05-21T02:03:00.932Z,13.79
2019-05-21T02:04:07.207Z,13.77
2019-05-21T02:05:00.925Z,13.78
2019-05-21T02:06:00.450Z,13.74
2019-05-21T02:07:00.926Z,13.67
2019-05-21T02:08:00.931Z,13.72
2019-05-21T02:09:00.422Z,13.72
2019-05-21T02:10:00.943Z,13.71
2019-05-21T02:11:00.903Z,13.7
2019-05-21T02:12:00.961Z,13.62
2019-05-21T02:13:00.899Z,13.74
2019-05-21T02:14:00.898Z,13.56
2019-05-21T02:15:03.979Z,13.57
2019-05-21T02:16:00.688Z,13.53
2019-05-21T02:17:00.898Z,13.56
2019-05-21T02:18:00.629Z,13.56
2019-05-21T02:19:00.873Z,13.49
2019-05-21T02:20:00.879Z,13.52
2019-05-21T02:21:00.905Z,13.52
2019-05-21T02:22:00.866Z,13.49
2019-05-21T02:23:00.622Z,13.46
2019-05-21T02:24:00.901Z,13.46
2019-05-21T02:25:01.009Z,13.49
2019-05-21T02:26:03.662Z,13.47
2019-05-21T02:27:00.610Z,13.41
2019-05-21T02:28:00.858Z,13.47
2019-05-21T02:29:00.829Z,13.49
2019-05-21T02:30:00.587Z,13.52
2019-05-21T02:31:01.775Z,13.47
2019-05-21T02:32:00.874Z,13.47
2019-05-21T02:33:00.824Z,13.46
2019-05-21T02:34:00.584Z,13.49
2019-05-21T02:35:00.854Z,13.5
2019-05-21T02:36:03.612Z,13.47
2019-05-21T02:37:00.589Z,13.5
2019-05-21T02:38:00.818Z,13.5
2019-05-21T02:39:00.803Z,13.47
2019-05-21T02:40:00.801Z,13.47
2019-05-21T02:41:00.563Z,13.49
2019-05-21T02:42:01.106Z,13.49
2019-05-21T02:43:00.801Z,13.52
2019-05-21T02:44:00.780Z,13.44
2019-05-21T02:45:00.284Z,13.47
2019-05-21T02:46:00.541Z,13.49
2019-05-21T02:47:03.904Z,13.5
2019-05-21T02:48:00.769Z,13.53
2019-05-21T02:49:00.768Z,13.47
2019-05-21T02:50:00.772Z,13.59
2019-05-21T02:51:00.514Z,13.57
2019-05-21T02:52:00.509Z,13.49
2019-05-21T02:53:00.746Z,13.52
2019-05-21T02:54:00.747Z,13.53
2019-05-21T02:55:00.841Z,13.53
2019-05-21T02:56:00.770Z,13.62
2019-05-21T02:57:00.525Z,13.57
2019-05-21T02:58:02.331Z,13.54
2019-05-21T02:59:00.519Z,13.56
2019-05-21T03:00:00.719Z,13.62
2019-05-21T03:01:00.736Z,13.59
2019-05-21T03:02:00.729Z,13.56
2019-05-21T03:03:00.717Z,13.62
2019-05-21T03:04:00.734Z,13.59
2019-05-21T03:05:00.702Z,13.59
2019-05-21T03:06:17.521Z,13.54
2019-05-21T03:07:00.454Z,13.54
2019-05-21T03:08:03.742Z,13.54
2019-05-21T03:09:06.968Z,13.56
2019-05-21T03:10:00.453Z,13.56
2019-05-21T03:11:00.463Z,13.59
2019-05-21T03:12:02.087Z,13.57
2019-05-21T03:13:00.479Z,13.52
2019-05-21T03:14:00.457Z,13.71
2019-05-21T03:15:00.431Z,13.57
2019-05-21T03:16:00.684Z,13.53
2019-05-21T03:17:00.674Z,13.57
2019-05-21T03:18:00.189Z,13.54
2019-05-21T03:19:06.687Z,13.59
2019-05-21T03:20:00.178Z,13.54
2019-05-21T03:21:00.428Z,13.59
2019-05-21T03:22:00.661Z,13.59
2019-05-21T03:23:00.426Z,13.56
2019-05-21T03:24:00.652Z,13.54
2019-05-21T03:25:04.757Z,13.57
2019-05-21T03:26:00.653Z,13.56
2019-05-21T03:27:00.141Z,13.54
2019-05-21T03:28:00.641Z,13.62
2019-05-21T03:29:00.386Z,13.56
2019-05-21T03:30:03.408Z,13.56
2019-05-21T03:31:00.429Z,13.6
2019-05-21T03:32:00.838Z,13.6
2019-05-21T03:33:00.651Z,13.59
2019-05-21T03:34:00.656Z,13.65
2019-05-21T03:35:00.636Z,13.63
2019-05-21T03:36:00.643Z,13.59
2019-05-21T03:37:00.379Z,13.72
2019-05-21T03:38:00.117Z,13.67
2019-05-21T03:39:00.368Z,13.68
2019-05-21T03:40:01.527Z,13.57
2019-05-21T03:41:03.396Z,13.71
2019-05-21T03:42:04.398Z,13.56
2019-05-21T03:43:00.594Z,13.71
2019-05-21T03:44:00.343Z,13.56
2019-05-21T03:45:09.912Z,13.57
2019-05-21T03:46:00.625Z,13.53
2019-05-21T03:47:00.577Z,13.52
2019-05-21T03:48:00.555Z,13.59
2019-05-21T03:49:00.565Z,13.54
2019-05-21T03:50:00.564Z,13.56
2019-05-21T03:51:03.584Z,13.56
2019-05-21T03:52:00.544Z,13.63
2019-05-21T03:53:00.198Z,13.56
2019-05-21T03:54:00.560Z,13.65
2019-05-21T03:55:04.979Z,13.56
2019-05-21T03:56:00.044Z,13.59
2019-05-21T03:57:00.333Z,13.56
2019-05-21T03:58:00.624Z,13.53
2019-05-21T03:59:00.280Z,13.6
2019-05-21T04:00:00.537Z,13.62
2019-05-21T04:01:00.283Z,13.56
2019-05-21T04:02:03.337Z,13.54
2019-05-21T04:03:00.302Z,13.56
2019-05-21T04:04:00.253Z,13.59
2019-05-21T04:05:00.300Z,13.6
2019-05-21T04:06:00.018Z,13.56
2019-05-21T04:07:00.262Z,13.59
2019-05-21T04:08:00.509Z,13.67
2019-05-21T04:09:00.509Z,13.56
2019-05-21T04:10:00.247Z,13.57
2019-05-21T04:11:00.509Z,13.56
2019-05-21T04:12:00.734Z,13.56
2019-05-21T04:13:02.355Z,13.57
2019-05-21T04:14:00.221Z,13.67
2019-05-21T04:15:00.463Z,13.65
2019-05-21T04:16:00.249Z,13.67
2019-05-21T04:17:00.230Z,13.71
2019-05-21T04:18:00.225Z,13.68
2019-05-21T04:19:00.501Z,13.68
2019-05-21T04:20:00.499Z,13.62
2019-05-21T04:21:00.208Z,13.7
2019-05-21T04:22:00.486Z,13.63
2019-05-21T04:23:02.851Z,13.67
2019-05-21T04:24:08.885Z,13.68
2019-05-21T04:25:00.472Z,13.62
2019-05-21T04:26:00.457Z,13.53
2019-05-21T04:27:00.228Z,13.65
2019-05-21T04:28:00.495Z,13.65
2019-05-21T04:29:00.209Z,13.6
2019-05-21T04:30:00.422Z,13.56
2019-05-21T04:31:00.418Z,13.7
2019-05-21T04:32:00.429Z,13.67
2019-05-21T04:33:00.160Z,13.67
2019-05-21T04:34:01.758Z,13.57
2019-05-21T04:35:00.160Z,13.68
2019-05-21T04:36:00.448Z,13.65
2019-05-21T04:37:23.937Z,13.71
2019-05-21T04:38:00.406Z,13.62
2019-05-21T04:39:00.161Z,13.65
2019-05-21T04:40:00.249Z,13.6
2019-05-21T04:41:00.388Z,13.65
2019-05-21T04:42:00.382Z,13.7
2019-05-21T04:43:04.738Z,13.67
2019-05-21T04:44:00.160Z,13.56
2019-05-21T04:45:06.645Z,13.57
2019-05-21T04:46:00.138Z,13.54
2019-05-21T04:47:00.387Z,13.52
2019-05-21T04:48:00.117Z,13.57
2019-05-21T04:49:00.408Z,13.59
2019-05-21T04:50:00.398Z,13.56
2019-05-21T04:51:00.374Z,13.59
2019-05-21T04:52:00.104Z,13.54
2019-05-21T04:53:00.107Z,13.59
2019-05-21T04:54:00.367Z,13.57
2019-05-21T04:55:01.533Z,13.5
2019-05-21T04:56:03.170Z,13.62
2019-05-21T04:57:00.085Z,13.56
2019-05-21T04:58:00.336Z,13.54
2019-05-21T04:59:00.337Z,13.6
2019-05-21T05:00:00.333Z,13.59
2019-05-21T05:01:00.105Z,13.57
2019-05-21T05:02:00.457Z,13.53
2019-05-21T05:03:00.319Z,13.54
2019-05-21T05:04:00.169Z,13.57
2019-05-21T05:05:00.060Z,13.62
2019-05-21T05:06:02.832Z,13.57
2019-05-21T05:07:00.059Z,13.57
2019-05-21T05:08:00.296Z,13.56
2019-05-21T05:09:00.291Z,13.59
2019-05-21T05:10:00.043Z,13.53
2019-05-21T05:10:59.782Z,13.59
2019-05-21T05:12:00.161Z,13.6
2019-05-21T05:13:00.323Z,13.54
2019-05-21T05:14:00.054Z,13.6
2019-05-21T05:14:59.763Z,13.53
2019-05-21T05:15:59.821Z,13.57
2019-05-21T05:17:03.070Z,13.49
2019-05-21T05:18:00.023Z,13.5
2019-05-21T05:18:59.749Z,13.46
2019-05-21T05:20:00.018Z,13.5
2019-05-21T05:20:59.753Z,13.52
2019-05-21T05:21:59.803Z,13.47
2019-05-21T05:23:00.341Z,13.47
2019-05-21T05:24:00.301Z,13.52
2019-05-21T05:24:59.728Z,13.47
2019-05-21T05:26:00.026Z,13.49
2019-05-21T05:27:00.823Z,13.56
2019-05-21T05:28:04.275Z,13.52
2019-05-21T05:29:00.008Z,13.57
2019-05-21T05:29:59.707Z,13.57
2019-05-21T05:31:00.254Z,13.52
2019-05-21T05:31:59.983Z,13.52
2019-05-21T05:33:00.226Z,13.56
2019-05-21T05:33:59.690Z,13.57
2019-05-21T05:34:59.930Z,13.5
2019-05-21T05:35:59.698Z,13.56
2019-05-21T05:36:59.940Z,13.46
2019-05-21T05:38:02.965Z,13.49
2019-05-21T05:38:59.923Z,13.5
2019-05-21T05:39:59.690Z,13.57
2019-05-21T05:40:59.917Z,13.47
2019-05-21T05:41:59.912Z,13.56
2019-05-21T05:43:00.174Z,13.47
2019-05-21T05:44:01.824Z,13.46
2019-05-21T05:45:00.155Z,13.41
2019-05-21T05:46:00.153Z,13.46
2019-05-21T05:46:59.897Z,13.46
2019-05-21T05:48:00.149Z,13.49
2019-05-21T05:49:04.318Z,13.52
2019-05-21T05:49:59.909Z,13.52
2019-05-21T05:50:59.924Z,13.54
2019-05-21T05:52:00.124Z,13.44
2019-05-21T05:53:00.143Z,13.52
2019-05-21T05:53:59.893Z,13.5
2019-05-21T05:54:59.870Z,13.52
2019-05-21T05:55:59.618Z,13.47
2019-05-21T05:56:59.936Z,13.54
2019-05-21T05:58:00.110Z,13.56
2019-05-21T05:58:59.942Z,13.47
2019-05-21T06:00:01.474Z,13.49
2019-05-21T06:00:59.886Z,13.49
2019-05-21T06:02:00.139Z,13.42
2019-05-21T06:03:00.092Z,13.49
2019-05-21T06:03:59.849Z,13.47
2019-05-21T06:05:00.120Z,13.46
2019-05-21T06:06:00.085Z,13.5
2019-05-21T06:06:59.590Z,13.49
2019-05-21T06:08:04.864Z,13.44
2019-05-21T06:09:00.118Z,13.44
2019-05-21T06:10:01.004Z,13.53
2019-05-21T06:11:03.104Z,13.52
2019-05-21T06:12:00.050Z,13.44
2019-05-21T06:12:59.571Z,13.47
2019-05-21T06:14:00.871Z,13.52
2019-05-21T06:15:00.067Z,13.44
2019-05-21T06:15:59.800Z,13.49
2019-05-21T06:17:00.164Z,13.47
2019-05-21T06:18:00.032Z,13.47
2019-05-21T06:19:00.039Z,13.54
2019-05-21T06:19:59.795Z,13.54
2019-05-21T06:21:06.325Z,13.47
2019-05-21T06:22:00.087Z,13.49
2019-05-21T06:23:00.029Z,13.49
2019-05-21T06:23:59.790Z,13.5
2019-05-21T06:25:00.019Z,13.49
2019-05-21T06:25:59.787Z,13.41
2019-05-21T06:26:59.772Z,13.46
2019-05-21T06:28:00.009Z,13.52
2019-05-21T06:29:00.027Z,13.52
2019-05-21T06:29:59.748Z,13.49
2019-05-21T06:30:59.504Z,13.5
2019-05-21T06:32:02.834Z,13.47
2019-05-21T06:33:00.001Z,13.52
2019-05-21T06:33:59.740Z,13.44
2019-05-21T06:34:59.980Z,13.46
2019-05-21T06:35:59.739Z,13.47
2019-05-21T06:36:59.737Z,13.5
2019-05-21T06:38:14.980Z,13.44
2019-05-21T06:38:59.962Z,13.47
2019-05-21T06:39:59.989Z,13.44
2019-05-21T06:40:59.736Z,13.49
2019-05-21T06:42:01.121Z,13.49
2019-05-21T06:43:02.985Z,13.47
2019-05-21T06:43:59.966Z,13.49
2019-05-21T06:44:59.974Z,13.46
2019-05-21T06:45:59.693Z,13.47
2019-05-21T06:46:59.953Z,13.5
2019-05-21T06:47:59.943Z,13.52
2019-05-21T06:48:59.455Z,13.49
2019-05-21T06:49:59.950Z,13.47
2019-05-21T06:50:59.437Z,13.54
2019-05-21T06:51:59.946Z,13.57
2019-05-21T06:53:02.461Z,13.49
2019-05-21T06:53:59.683Z,13.47
2019-05-21T06:54:59.916Z,13.52
2019-05-21T06:55:59.667Z,13.47
2019-05-21T06:56:59.670Z,13.5
2019-05-21T06:57:59.908Z,13.46
2019-05-21T06:58:59.905Z,13.5
2019-05-21T06:59:59.809Z,13.52
2019-05-21T07:00:59.939Z,13.47
2019-05-21T07:01:59.648Z,13.52
2019-05-21T07:02:59.405Z,13.53
2019-05-21T07:04:02.981Z,13.46
2019-05-21T07:04:59.939Z,13.5
2019-05-21T07:06:03.780Z,13.47
2019-05-21T07:06:59.877Z,13.47
2019-05-21T07:07:59.635Z,13.47
2019-05-21T07:08:59.867Z,13.5
2019-05-21T07:09:59.379Z,13.5
2019-05-21T07:10:59.781Z,13.49
2019-05-21T07:11:59.876Z,13.49
2019-05-21T07:12:59.622Z,13.47
2019-05-21T07:13:59.384Z,13.46
2019-05-21T07:15:01.489Z,13.49
2019-05-21T07:15:59.603Z,13.53
2019-05-21T07:16:59.874Z,13.44
2019-05-21T07:17:59.856Z,13.54
2019-05-21T07:18:59.869Z,13.52
2019-05-21T07:19:59.599Z,13.47
2019-05-21T07:20:59.837Z,13.57
2019-05-21T07:22:16.163Z,13.5
2019-05-21T07:22:59.924Z,13.54
2019-05-21T07:23:59.863Z,13.52
2019-05-21T07:25:02.251Z,13.5
2019-05-21T07:26:05.854Z,13.5
2019-05-21T07:26:59.882Z,13.54
2019-05-21T07:27:59.830Z,13.47
2019-05-21T07:29:01.233Z,13.46
2019-05-21T07:29:59.300Z,13.47
2019-05-21T07:30:59.793Z,13.49
2019-05-21T07:31:59.796Z,13.46
2019-05-21T07:33:00.651Z,13.49
2019-05-21T07:33:59.788Z,13.46
2019-05-21T07:34:59.789Z,13.47
2019-05-21T07:36:01.022Z,13.5
2019-05-21T07:36:59.807Z,13.5
2019-05-21T07:37:59.763Z,13.5
2019-05-21T07:38:59.271Z,13.47
2019-05-21T07:39:59.533Z,13.5
2019-05-21T07:40:59.774Z,13.47
2019-05-21T07:41:59.521Z,13.46
2019-05-21T07:42:59.520Z,13.47
2019-05-21T07:43:59.785Z,13.52
2019-05-21T07:44:59.809Z,13.53
2019-05-21T07:45:59.248Z,13.54
2019-05-21T07:47:02.795Z,13.53
2019-05-21T07:47:59.739Z,13.65
2019-05-21T07:48:59.736Z,13.54
2019-05-21T07:49:59.520Z,13.54
2019-05-21T07:50:59.759Z,13.62
2019-05-21T07:51:59.720Z,13.68
2019-05-21T07:52:59.704Z,13.68
2019-05-21T07:53:59.506Z,13.71
2019-05-21T07:54:59.712Z,13.68
2019-05-21T07:55:59.455Z,13.68
2019-05-21T07:57:00.973Z,13.81
2019-05-21T07:58:02.489Z,13.9
2019-05-21T07:58:59.697Z,13.86
2019-05-21T07:59:59.554Z,13.85
2019-05-21T08:01:03.563Z,13.85
2019-05-21T08:01:59.682Z,13.85
2019-05-21T08:02:59.465Z,13.83
2019-05-21T08:03:59.481Z,13.9
2019-05-21T08:04:59.519Z,13.89
2019-05-21T08:05:59.512Z,13.85
2019-05-21T08:06:59.419Z,13.81
2019-05-21T08:08:02.461Z,13.93
2019-05-21T08:09:17.484Z,13.93
2019-05-21T08:09:59.408Z,13.96
2019-05-21T08:10:59.673Z,13.96
2019-05-21T08:11:59.651Z,13.99
2019-05-21T08:12:59.448Z,14.11
2019-05-21T08:13:59.409Z,14.03
2019-05-21T08:15:00.261Z,13.99
2019-05-21T08:15:59.644Z,13.92
2019-05-21T08:16:59.643Z,14
2019-05-21T08:17:59.742Z,13.99
2019-05-21T08:19:02.666Z,13.97
2019-05-21T08:20:11.484Z,13.9
2019-05-21T08:20:59.382Z,13.97
2019-05-21T08:21:59.392Z,13.93
2019-05-21T08:22:59.634Z,14
2019-05-21T08:23:59.380Z,13.95
2019-05-21T08:24:59.619Z,13.95
2019-05-21T08:25:59.134Z,13.95
2019-05-21T08:26:59.462Z,13.99
2019-05-21T08:27:59.363Z,14
2019-05-21T08:28:59.847Z,13.97
2019-05-21T08:30:02.202Z,13.92
2019-05-21T08:31:02.161Z,13.96
2019-05-21T08:31:59.602Z,14
2019-05-21T08:32:59.587Z,14
2019-05-21T08:33:59.646Z,13.93
2019-05-21T08:34:59.586Z,13.89
2019-05-21T08:35:59.590Z,13.78
2019-05-21T08:36:59.587Z,13.83
2019-05-21T08:37:59.698Z,13.85
2019-05-21T08:38:59.574Z,13.85
2019-05-21T08:40:02.620Z,13.83
2019-05-21T08:41:05.862Z,13.85
2019-05-21T08:41:59.571Z,13.83
2019-05-21T08:42:59.618Z,13.85
2019-05-21T08:43:59.556Z,13.79
2019-05-21T08:44:59.324Z,13.79
2019-05-21T08:45:59.373Z,13.87
2019-05-21T08:46:59.300Z,13.83
2019-05-21T08:47:59.553Z,13.83
2019-05-21T08:48:59.301Z,13.78
2019-05-21T08:49:59.326Z,13.79
2019-05-21T08:51:02.034Z,13.78
2019-05-21T08:51:59.342Z,13.74
2019-05-21T08:52:59.545Z,13.77
2019-05-21T08:53:59.305Z,13.81
2019-05-21T08:55:01.169Z,13.75
2019-05-21T08:55:59.281Z,13.81
2019-05-21T08:56:59.278Z,13.87
2019-05-21T09:00:09.607Z,13.72
2019-05-21T09:00:19.006Z,13.85
2019-05-21T09:01:19.054Z,13.83
2019-05-21T09:02:18.999Z,13.85
2019-05-21T09:03:18.816Z,13.83
2019-05-21T09:04:19.031Z,13.86
2019-05-21T09:05:22.048Z,13.79
2019-05-21T09:06:19.028Z,13.78
2019-05-21T09:07:18.977Z,13.83
2019-05-21T09:08:18.490Z,13.92
2019-05-21T09:09:18.988Z,13.85
2019-05-21T09:10:18.986Z,13.92
2019-05-21T09:11:18.732Z,13.87
2019-05-21T09:12:18.718Z,13.93
2019-05-21T09:13:22.464Z,13.85
2019-05-21T09:14:18.702Z,13.9
2019-05-21T09:15:19.310Z,13.95
2019-05-21T09:16:21.981Z,13.95
2019-05-21T09:17:18.700Z,13.95
2019-05-21T09:18:18.726Z,13.97
2019-05-21T09:19:18.697Z,13.99
2019-05-21T09:20:18.452Z,13.9
2019-05-21T09:21:18.960Z,13.99
2019-05-21T09:22:18.685Z,13.97
2019-05-21T09:23:18.961Z,13.96
2019-05-21T09:24:18.961Z,13.96
2019-05-21T09:25:18.916Z,13.97
2019-05-21T09:26:21.500Z,13.97
2019-05-21T09:27:25.221Z,14.04
2019-05-21T09:28:18.913Z,13.99
2019-05-21T09:29:19.008Z,13.96
2019-05-21T09:30:18.944Z,13.93
2019-05-21T09:31:18.966Z,13.96
2019-05-21T09:32:18.646Z,13.96
2019-05-21T09:33:18.890Z,14.08
2019-05-21T09:34:18.887Z,14.08
2019-05-21T09:35:18.966Z,14.04
2019-05-21T09:36:18.910Z,14.17
2019-05-21T09:37:24.825Z,14.07
2019-05-21T09:38:18.678Z,14.12
2019-05-21T09:39:18.402Z,14.08
2019-05-21T09:40:18.978Z,14
2019-05-21T09:41:18.659Z,13.95
2019-05-21T09:42:18.916Z,13.97
2019-05-21T09:43:18.621Z,14.1
2019-05-21T09:44:18.612Z,14.08
2019-05-21T09:45:18.851Z,14.05
2019-05-21T09:46:20.023Z,14.05
2019-05-21T09:47:18.891Z,13.97
2019-05-21T09:48:25.231Z,14.18
2019-05-21T09:49:18.838Z,14.04
2019-05-21T09:50:18.602Z,14.04
2019-05-21T09:51:24.350Z,14
2019-05-21T09:52:18.842Z,14.07
2019-05-21T09:53:18.882Z,14.05
2019-05-21T09:54:18.582Z,14.17
2019-05-21T09:55:18.952Z,14.05
2019-05-21T09:56:18.587Z,14.2
2019-05-21T09:57:18.324Z,14.22
2019-05-21T09:58:20.073Z,14.17
2019-05-21T09:59:21.961Z,14.18
2019-05-21T10:00:18.844Z,14.18
2019-05-21T10:01:18.806Z,14.26
2019-05-21T10:02:18.552Z,14.35
2019-05-21T10:03:18.553Z,14.35
2019-05-21T10:04:18.812Z,14.35
2019-05-21T10:05:18.546Z,14.33
2019-05-21T10:06:18.797Z,14.4
2019-05-21T10:07:36.274Z,14.37
2019-05-21T10:08:18.557Z,14.36
2019-05-21T10:09:25.103Z,14.36
2019-05-21T10:10:18.826Z,14.41
2019-05-21T10:11:18.528Z,14.41
2019-05-21T10:12:18.929Z,14.45
2019-05-21T10:13:18.766Z,14.44
2019-05-21T10:14:18.778Z,14.48
2019-05-21T10:15:18.316Z,14.48
2019-05-21T10:16:18.758Z,14.48
2019-05-21T10:17:18.790Z,14.45
2019-05-21T10:18:18.520Z,14.45
2019-05-21T10:19:18.750Z,14.41
2019-05-21T10:20:21.566Z,14.41
2019-05-21T10:21:18.246Z,14.47
2019-05-21T10:22:18.750Z,14.5
2019-05-21T10:23:18.246Z,14.5
2019-05-21T10:24:18.738Z,14.51
2019-05-21T10:25:20.443Z,14.53
2019-05-21T10:26:18.483Z,14.51
2019-05-21T10:27:18.791Z,14.51
2019-05-21T10:28:18.483Z,14.51
2019-05-21T10:29:18.469Z,14.51
2019-05-21T10:30:19.329Z,14.53
2019-05-21T10:31:21.761Z,14.53
2019-05-21T10:32:18.515Z,14.53
2019-05-21T10:33:18.707Z,14.48
2019-05-21T10:34:18.476Z,14.48
2019-05-21T10:35:18.486Z,14.51
2019-05-21T10:36:18.728Z,14.5
2019-05-21T10:37:18.703Z,14.4
2019-05-21T10:38:18.709Z,14.47
2019-05-21T10:39:18.473Z,14.44
2019-05-21T10:40:18.705Z,14.36
2019-05-21T10:41:21.224Z,14.36
2019-05-21T10:42:18.450Z,14.35
2019-05-21T10:43:18.282Z,14.47
2019-05-21T10:44:18.453Z,14.37
2019-05-21T10:45:18.480Z,14.36
2019-05-21T10:46:18.681Z,14.37
2019-05-21T10:47:21.211Z,14.41
2019-05-21T10:48:18.795Z,14.37
2019-05-21T10:49:18.437Z,14.41
2019-05-21T10:50:18.681Z,14.4
2019-05-21T10:51:18.427Z,14.47
2019-05-21T10:52:21.703Z,14.32
2019-05-21T10:53:18.741Z,14.37
2019-05-21T10:54:18.684Z,14.37
2019-05-21T10:55:20.904Z,14.45
2019-05-21T10:56:18.651Z,14.37
2019-05-21T10:57:18.659Z,14.41
2019-05-21T10:58:18.395Z,14.45
2019-05-21T10:59:18.654Z,14.4
2019-05-21T11:00:22.654Z,14.36
2019-05-21T11:01:18.632Z,14.37
2019-05-21T11:02:18.382Z,14.37
2019-05-21T11:03:24.839Z,14.36
2019-05-21T11:04:18.390Z,14.33
2019-05-21T11:05:18.634Z,14.35
2019-05-21T11:06:18.637Z,14.44
2019-05-21T11:07:18.613Z,14.5
2019-05-21T11:08:28.873Z,14.45
2019-05-21T11:09:18.623Z,14.44
2019-05-21T11:10:18.922Z,14.43
2019-05-21T11:11:23.443Z,14.47
2019-05-21T11:12:18.615Z,14.4
2019-05-21T11:13:20.027Z,14.48
2019-05-21T11:14:21.647Z,14.44
2019-05-21T11:15:18.639Z,14.43
2019-05-21T11:16:18.371Z,14.5
2019-05-21T11:17:18.620Z,14.33
2019-05-21T11:18:18.591Z,14.33
2019-05-21T11:19:18.346Z,14.36
2019-05-21T11:20:18.590Z,14.35
2019-05-21T11:21:18.698Z,14.4
2019-05-21T11:22:18.346Z,14.35
2019-05-21T11:23:18.580Z,14.44
2019-05-21T11:24:24.610Z,14.44
2019-05-21T11:25:18.363Z,14.41
2019-05-21T11:26:18.356Z,14.4
2019-05-21T11:27:18.319Z,14.4
2019-05-21T11:28:18.577Z,14.43
2019-05-21T11:29:18.572Z,14.36
2019-05-21T11:30:18.569Z,14.41
2019-05-21T11:31:18.506Z,14.4
2019-05-21T11:32:18.069Z,14.43
2019-05-21T11:33:18.568Z,14.41
2019-05-21T11:34:18.587Z,14.41
2019-05-21T11:35:21.589Z,14.36
2019-05-21T11:36:18.542Z,14.32
2019-05-21T11:37:18.559Z,14.4
2019-05-21T11:38:18.610Z,14.43
2019-05-21T11:39:18.551Z,14.44
2019-05-21T11:40:18.684Z,14.44
2019-05-21T11:41:18.889Z,14.43
2019-05-21T11:42:18.289Z,14.45
2019-05-21T11:43:18.342Z,14.41
2019-05-21T11:44:18.280Z,14.33
2019-05-21T11:45:35.848Z,14.45
2019-05-21T11:46:21.306Z,14.44
2019-05-21T11:47:18.029Z,14.41
2019-05-21T11:48:19.383Z,14.47
2019-05-21T11:49:18.070Z,14.48
2019-05-21T11:50:18.518Z,14.5
2019-05-21T11:51:18.926Z,14.41
2019-05-21T11:52:18.527Z,14.48
2019-05-21T11:53:18.521Z,14.51
2019-05-21T11:54:18.511Z,14.45
2019-05-21T11:55:18.522Z,14.44
2019-05-21T11:56:21.421Z,14.5
2019-05-21T11:57:18.006Z,14.53
2019-05-21T11:58:18.266Z,14.37
2019-05-21T11:59:18.598Z,14.4
2019-05-21T12:00:21.431Z,14.48
2019-05-21T12:01:18.294Z,14.53
2019-05-21T12:02:18.050Z,14.53
2019-05-21T12:03:18.330Z,14.65
2019-05-21T12:04:18.492Z,14.55
2019-05-21T12:05:18.234Z,14.65
2019-05-21T12:06:18.512Z,14.59
2019-05-21T12:07:21.514Z,14.69
2019-05-21T12:08:18.225Z,14.72
2019-05-21T12:09:18.507Z,14.78
2019-05-21T12:10:18.223Z,14.72
2019-05-21T12:11:18.156Z,14.78
2019-05-21T12:12:18.210Z,14.84
2019-05-21T12:13:22.797Z,14.81
2019-05-21T12:14:18.222Z,14.84
2019-05-21T12:15:18.222Z,14.78
2019-05-21T12:16:18.214Z,14.85
2019-05-21T12:17:18.264Z,14.88
2019-05-21T12:18:19.646Z,14.85
2019-05-21T12:19:18.494Z,14.89
2019-05-21T12:20:33.577Z,14.88
2019-05-21T12:21:18.447Z,14.99
2019-05-21T12:22:18.434Z,14.96
2019-05-21T12:23:18.194Z,15.02
2019-05-21T12:24:17.941Z,15.03
2019-05-21T12:25:18.433Z,15.03
2019-05-21T12:26:18.242Z,15.04
2019-05-21T12:27:18.428Z,15.14
2019-05-21T12:28:21.216Z,15.07
2019-05-21T12:29:21.558Z,15.03
2019-05-21T12:30:18.181Z,15.1
2019-05-21T12:31:18.418Z,15.03
2019-05-21T12:32:20.922Z,15.04
2019-05-21T12:33:17.923Z,15.06
2019-05-21T12:34:18.220Z,15.21
2019-05-21T12:35:18.169Z,15.17
2019-05-21T12:36:18.434Z,15.21
2019-05-21T12:37:18.229Z,15.15
2019-05-21T12:38:18.420Z,15.15
2019-05-21T12:39:24.035Z,15.15
2019-05-21T12:40:18.165Z,15.15
2019-05-21T12:41:18.991Z,15.19
2019-05-21T12:42:18.158Z,15.1
2019-05-21T12:43:18.172Z,15.14
2019-05-21T12:44:18.406Z,15.07
2019-05-21T12:45:18.157Z,15.09
2019-05-21T12:46:18.151Z,14.99
2019-05-21T12:47:17.899Z,15.02
2019-05-21T12:48:18.164Z,15.11
2019-05-21T12:49:18.387Z,15.07
2019-05-21T12:50:20.981Z,15.06
2019-05-21T12:51:18.192Z,15.04
2019-05-21T12:52:18.150Z,14.99
2019-05-21T12:53:21.156Z,15.06
2019-05-21T12:54:18.388Z,15.03
2019-05-21T12:55:18.368Z,14.99
2019-05-21T12:56:18.446Z,14.97
2019-05-21T12:57:18.131Z,15.02